sensor_id;sensor_type;location;lat;lon;timestamp;pressure;altitude;pressure_sealevel;temperature
24201;BMP280;2801;50.972;7.856;2022-12-29T00:01:41;96457.09;;;9.41
24201;BMP280;2801;50.972;7.856;2022-12-29T00:04:13;96469.31;;;9.42
24201;BMP280;2801;50.972;7.856;2022-12-29T00:06:42;96468.66;;;9.45
24201;BMP280;2801;50.972;7.856;2022-12-29T00:09:11;96448.03;;;9.45
24201;BMP280;2801;50.972;7.856;2022-12-29T00:11:39;96446.38;;;9.41
24201;BMP280;2801;50.972;7.856;2022-12-29T00:14:08;96432.91;;;9.37
24201;BMP280;2801;50.972;7.856;2022-12-29T00:16:54;96442.66;;;9.45
24201;BMP280;2801;50.972;7.856;2022-12-29T00:19:21;96455.38;;;9.48
24201;BMP280;2801;50.972;7.856;2022-12-29T00:22:09;96435.53;;;9.49
24201;BMP280;2801;50.972;7.856;2022-12-29T00:24:55;96449.44;;;9.55
24201;BMP280;2801;50.972;7.856;2022-12-29T00:27:29;96453.69;;;9.56
24201;BMP280;2801;50.972;7.856;2022-12-29T00:30:19;96433.72;;;9.53
24201;BMP280;2801;50.972;7.856;2022-12-29T00:33:18;96436.50;;;9.57
24201;BMP280;2801;50.972;7.856;2022-12-29T00:36:31;96418.19;;;9.59
24201;BMP280;2801;50.972;7.856;2022-12-29T00:39:03;96419.06;;;9.63
24201;BMP280;2801;50.972;7.856;2022-12-29T00:41:50;96417.09;;;9.60
24201;BMP280;2801;50.972;7.856;2022-12-29T00:44:35;96411.75;;;9.60
24201;BMP280;2801;50.972;7.856;2022-12-29T00:47:03;96416.56;;;9.54
24201;BMP280;2801;50.972;7.856;2022-12-29T00:49:31;96418.91;;;9.56
24201;BMP280;2801;50.972;7.856;2022-12-29T00:54:32;96408.81;;;9.65
24201;BMP280;2801;50.972;7.856;2022-12-29T00:57:00;96392.09;;;9.68
24201;BMP280;2801;50.972;7.856;2022-12-29T00:59:27;96408.16;;;9.68
24201;BMP280;2801;50.972;7.856;2022-12-29T01:01:55;96416.72;;;9.73
24201;BMP280;2801;50.972;7.856;2022-12-29T01:04:24;96416.78;;;9.77
24201;BMP280;2801;50.972;7.856;2022-12-29T01:06:52;96409.97;;;9.79
24201;BMP280;2801;50.972;7.856;2022-12-29T01:09:19;96409.97;;;9.79
24201;BMP280;2801;50.972;7.856;2022-12-29T01:12:07;96414.03;;;9.89
24201;BMP280;2801;50.972;7.856;2022-12-29T01:14:34;96398.78;;;9.89
24201;BMP280;2801;50.972;7.856;2022-12-29T01:17:01;96397.56;;;9.87
24201;BMP280;2801;50.972;7.856;2022-12-29T01:19:28;96392.97;;;9.87
24201;BMP280;2801;50.972;7.856;2022-12-29T01:21:56;96395.84;;;9.94
24201;BMP280;2801;50.972;7.856;2022-12-29T01:24:23;96398.50;;;9.94
24201;BMP280;2801;50.972;7.856;2022-12-29T01:26:51;96394.63;;;9.92
24201;BMP280;2801;50.972;7.856;2022-12-29T01:29:18;96402.25;;;9.90
24201;BMP280;2801;50.972;7.856;2022-12-29T01:31:45;96413.81;;;9.94
24201;BMP280;2801;50.972;7.856;2022-12-29T01:34:12;96414.16;;;9.92
24201;BMP280;2801;50.972;7.856;2022-12-29T01:36:39;96388.47;;;9.91
24201;BMP280;2801;50.972;7.856;2022-12-29T01:39:06;96399.91;;;9.88
24201;BMP280;2801;50.972;7.856;2022-12-29T01:41:33;96405.00;;;9.93
24201;BMP280;2801;50.972;7.856;2022-12-29T01:44:00;96400.75;;;9.92
24201;BMP280;2801;50.972;7.856;2022-12-29T01:46:47;96392.22;;;9.87
24201;BMP280;2801;50.972;7.856;2022-12-29T01:49:23;96392.97;;;9.87
24201;BMP280;2801;50.972;7.856;2022-12-29T01:51:54;96412.16;;;9.89
24201;BMP280;2801;50.972;7.856;2022-12-29T01:54:31;96397.56;;;9.87
24201;BMP280;2801;50.972;7.856;2022-12-29T01:57:03;96393.75;;;9.88
24201;BMP280;2801;50.972;7.856;2022-12-29T01:59:40;96380.88;;;9.78
24201;BMP280;2801;50.972;7.856;2022-12-29T02:02:09;96379.97;;;9.86
24201;BMP280;2801;50.972;7.856;2022-12-29T02:04:41;96388.66;;;9.83
24201;BMP280;2801;50.972;7.856;2022-12-29T02:07:19;96386.75;;;9.83
24201;BMP280;2801;50.972;7.856;2022-12-29T02:09:54;96394.88;;;9.87
24201;BMP280;2801;50.972;7.856;2022-12-29T02:12:23;96387.19;;;9.85
24201;BMP280;2801;50.972;7.856;2022-12-29T02:14:58;96388.31;;;9.84
24201;BMP280;2801;50.972;7.856;2022-12-29T02:17:45;96388.06;;;9.89
24201;BMP280;2801;50.972;7.856;2022-12-29T02:26:45;96377.09;;;9.94
24201;BMP280;2801;50.972;7.856;2022-12-29T02:30:01;96381.25;;;9.92
24201;BMP280;2801;50.972;7.856;2022-12-29T02:39:11;96370.78;;;9.87
24201;BMP280;2801;50.972;7.856;2022-12-29T02:47:38;96363.63;;;9.91
24201;BMP280;2801;50.972;7.856;2022-12-29T02:50:08;96357.94;;;9.92
24201;BMP280;2801;50.972;7.856;2022-12-29T02:52:49;96356.13;;;9.96
24201;BMP280;2801;50.972;7.856;2022-12-29T02:55:17;96366.91;;;10.00
24201;BMP280;2801;50.972;7.856;2022-12-29T02:57:44;96353.69;;;9.91
24201;BMP280;2801;50.972;7.856;2022-12-29T03:00:17;96353.78;;;9.95
24201;BMP280;2801;50.972;7.856;2022-12-29T03:08:44;96356.41;;;10.07
24201;BMP280;2801;50.972;7.856;2022-12-29T03:11:15;96358.63;;;10.05
24201;BMP280;2801;50.972;7.856;2022-12-29T03:14:31;96343.41;;;9.93
24201;BMP280;2801;50.972;7.856;2022-12-29T03:17:29;96343.50;;;9.97
24201;BMP280;2801;50.972;7.856;2022-12-29T03:20:07;96337.81;;;9.98
24201;BMP280;2801;50.972;7.856;2022-12-29T03:22:41;96346.34;;;10.04
24201;BMP280;2801;50.972;7.856;2022-12-29T03:25:26;96344.47;;;10.04
24201;BMP280;2801;50.972;7.856;2022-12-29T03:28:03;96342.47;;;10.01
24201;BMP280;2801;50.972;7.856;2022-12-29T03:30:33;96346.69;;;10.02
24201;BMP280;2801;50.972;7.856;2022-12-29T03:33:06;96337.56;;;10.03
24201;BMP280;2801;50.972;7.856;2022-12-29T03:35:37;96338.00;;;10.05
24201;BMP280;2801;50.972;7.856;2022-12-29T03:38:29;96341.78;;;10.04
24201;BMP280;2801;50.972;7.856;2022-12-29T03:41:03;96332.97;;;10.04
24201;BMP280;2801;50.972;7.856;2022-12-29T03:43:31;96331.06;;;10.04
24201;BMP280;2801;50.972;7.856;2022-12-29T03:45:58;96327.47;;;10.12
24201;BMP280;2801;50.972;7.856;2022-12-29T03:48:25;96335.00;;;10.07
24201;BMP280;2801;50.972;7.856;2022-12-29T03:50:52;96322.13;;;10.12
24201;BMP280;2801;50.972;7.856;2022-12-29T03:53:19;96319.38;;;10.09
24201;BMP280;2801;50.972;7.856;2022-12-29T03:55:46;96318.31;;;10.13
24201;BMP280;2801;50.972;7.856;2022-12-29T03:58:12;96310.72;;;10.15
24201;BMP280;2801;50.972;7.856;2022-12-29T04:00:39;96315.97;;;10.12
24201;BMP280;2801;50.972;7.856;2022-12-29T04:03:06;96313.75;;;10.14
24201;BMP280;2801;50.972;7.856;2022-12-29T04:05:33;96320.81;;;10.06
24201;BMP280;2801;50.972;7.856;2022-12-29T04:08:00;96320.56;;;10.11
24201;BMP280;2801;50.972;7.856;2022-12-29T04:10:27;96343.53;;;10.12
24201;BMP280;2801;50.972;7.856;2022-12-29T04:12:53;96327.81;;;10.11
24201;BMP280;2801;50.972;7.856;2022-12-29T04:15:20;96328.50;;;10.08
24201;BMP280;2801;50.972;7.856;2022-12-29T04:17:47;96316.34;;;10.10
24201;BMP280;2801;50.972;7.856;2022-12-29T04:20:14;96326.28;;;10.10
24201;BMP280;2801;50.972;7.856;2022-12-29T04:23:04;96314.88;;;10.13
24201;BMP280;2801;50.972;7.856;2022-12-29T04:25:32;96319.44;;;10.12
24201;BMP280;2801;50.972;7.856;2022-12-29T04:28:00;96319.56;;;10.04
24201;BMP280;2801;50.972;7.856;2022-12-29T04:30:27;96312.53;;;10.11
24201;BMP280;2801;50.972;7.856;2022-12-29T04:32:54;96309.75;;;10.08
24201;BMP280;2801;50.972;7.856;2022-12-29T04:35:21;96305.44;;;10.03
24201;BMP280;2801;50.972;7.856;2022-12-29T04:37:48;96309.75;;;10.08
24201;BMP280;2801;50.972;7.856;2022-12-29T04:40:15;96318.13;;;10.06
24201;BMP280;2801;50.972;7.856;2022-12-29T04:42:42;96320.06;;;10.06
24201;BMP280;2801;50.972;7.856;2022-12-29T04:45:09;96317.25;;;10.02
24201;BMP280;2801;50.972;7.856;2022-12-29T04:47:37;96316.25;;;10.07
24201;BMP280;2801;50.972;7.856;2022-12-29T04:50:04;96303.84;;;10.02
24201;BMP280;2801;50.972;7.856;2022-12-29T04:52:31;96292.63;;;9.97
24201;BMP280;2801;50.972;7.856;2022-12-29T04:54:58;96289.38;;;10.03
24201;BMP280;2801;50.972;7.856;2022-12-29T04:57:26;96297.06;;;10.05
24201;BMP280;2801;50.972;7.856;2022-12-29T04:59:53;96304.31;;;10.04
24201;BMP280;2801;50.972;7.856;2022-12-29T05:02:20;96300.44;;;10.02
24201;BMP280;2801;50.972;7.856;2022-12-29T05:04:47;96282.88;;;10.04
24201;BMP280;2801;50.972;7.856;2022-12-29T05:07:14;96291.25;;;10.03
24201;BMP280;2801;50.972;7.856;2022-12-29T05:09:41;96292.50;;;10.05
24201;BMP280;2801;50.972;7.856;2022-12-29T05:12:08;96279.25;;;9.97
24201;BMP280;2801;50.972;7.856;2022-12-29T05:14:34;96289.47;;;10.07
24201;BMP280;2801;50.972;7.856;2022-12-29T05:17:01;96294.81;;;10.07
24201;BMP280;2801;50.972;7.856;2022-12-29T05:19:28;96296.72;;;10.06
24201;BMP280;2801;50.972;7.856;2022-12-29T05:21:55;96302.50;;;10.08
24201;BMP280;2801;50.972;7.856;2022-12-29T05:24:22;96307.09;;;10.08
24201;BMP280;2801;50.972;7.856;2022-12-29T05:26:48;96302.75;;;10.03
24201;BMP280;2801;50.972;7.856;2022-12-29T05:29:15;96304.41;;;10.08
24201;BMP280;2801;50.972;7.856;2022-12-29T05:31:43;96294.97;;;9.98
24201;BMP280;2801;50.972;7.856;2022-12-29T05:34:13;96287.66;;;9.95
24201;BMP280;2801;50.972;7.856;2022-12-29T05:36:40;96288.94;;;10.01
24201;BMP280;2801;50.972;7.856;2022-12-29T05:39:07;96284.19;;;9.95
24201;BMP280;2801;50.972;7.856;2022-12-29T05:41:34;96281.50;;;9.95
24201;BMP280;2801;50.972;7.856;2022-12-29T05:44:02;96296.38;;;9.92
24201;BMP280;2801;50.972;7.856;2022-12-29T05:46:29;96303.88;;;9.87
24201;BMP280;2801;50.972;7.856;2022-12-29T05:48:56;96316.47;;;9.86
24201;BMP280;2801;50.972;7.856;2022-12-29T05:51:23;96310.78;;;9.88
24201;BMP280;2801;50.972;7.856;2022-12-29T05:53:50;96305.78;;;9.86
24201;BMP280;2801;50.972;7.856;2022-12-29T05:56:17;96304.41;;;9.92
24201;BMP280;2801;50.972;7.856;2022-12-29T05:58:44;96305.25;;;9.96
24201;BMP280;2801;50.972;7.856;2022-12-29T06:01:11;96312.94;;;9.98
24201;BMP280;2801;50.972;7.856;2022-12-29T06:03:38;96308.47;;;10.02
24201;BMP280;2801;50.972;7.856;2022-12-29T06:06:11;96325.72;;;10.04
24201;BMP280;2801;50.972;7.856;2022-12-29T06:08:38;96308.56;;;10.05
24201;BMP280;2801;50.972;7.856;2022-12-29T06:11:05;96315.81;;;10.05
24201;BMP280;2801;50.972;7.856;2022-12-29T06:13:32;96318.91;;;10.07
24201;BMP280;2801;50.972;7.856;2022-12-29T06:15:59;96309.41;;;10.09
24201;BMP280;2801;50.972;7.856;2022-12-29T06:18:26;96310.72;;;10.15
24201;BMP280;2801;50.972;7.856;2022-12-29T06:20:53;96324.63;;;10.21
24201;BMP280;2801;50.972;7.856;2022-12-29T06:23:20;96309.69;;;10.20
24201;BMP280;2801;50.972;7.856;2022-12-29T06:25:47;96322.00;;;10.24
24201;BMP280;2801;50.972;7.856;2022-12-29T06:28:15;96324.97;;;10.19
24201;BMP280;2801;50.972;7.856;2022-12-29T06:30:44;96332.72;;;10.24
24201;BMP280;2801;50.972;7.856;2022-12-29T06:33:12;96349.75;;;10.16
24201;BMP280;2801;50.972;7.856;2022-12-29T06:35:39;96349.34;;;10.14
24201;BMP280;2801;50.972;7.856;2022-12-29T06:38:08;96344.66;;;10.11
24201;BMP280;2801;50.972;7.856;2022-12-29T06:40:34;96326.06;;;10.03
24201;BMP280;2801;50.972;7.856;2022-12-29T06:43:01;96322.59;;;10.02
24201;BMP280;2801;50.972;7.856;2022-12-29T06:45:28;96312.50;;;9.96
24201;BMP280;2801;50.972;7.856;2022-12-29T06:47:55;96326.69;;;9.96
24201;BMP280;2801;50.972;7.856;2022-12-29T06:50:22;96331.59;;;9.94
24201;BMP280;2801;50.972;7.856;2022-12-29T06:52:49;96342.06;;;9.99
24201;BMP280;2801;50.972;7.856;2022-12-29T06:55:15;96353.88;;;9.98
24201;BMP280;2801;50.972;7.856;2022-12-29T06:57:42;96357.66;;;9.97
24201;BMP280;2801;50.972;7.856;2022-12-29T07:00:10;96336.88;;;9.91
24201;BMP280;2801;50.972;7.856;2022-12-29T07:02:37;96339.19;;;9.92
24201;BMP280;2801;50.972;7.856;2022-12-29T07:05:04;96352.59;;;9.92
24201;BMP280;2801;50.972;7.856;2022-12-29T07:07:31;96364.66;;;9.86
24201;BMP280;2801;50.972;7.856;2022-12-29T07:09:58;96318.22;;;9.79
24201;BMP280;2801;50.972;7.856;2022-12-29T07:12:25;96327.28;;;9.74
24201;BMP280;2801;50.972;7.856;2022-12-29T07:14:51;96317.16;;;9.68
24201;BMP280;2801;50.972;7.856;2022-12-29T07:17:18;96318.38;;;9.70
24201;BMP280;2801;50.972;7.856;2022-12-29T07:19:45;96329.88;;;9.71
24201;BMP280;2801;50.972;7.856;2022-12-29T07:22:12;96321.66;;;9.64
24201;BMP280;2801;50.972;7.856;2022-12-29T07:24:39;96319.22;;;9.59
24201;BMP280;2801;50.972;7.856;2022-12-29T07:27:05;96345.56;;;9.57
24201;BMP280;2801;50.972;7.856;2022-12-29T07:29:32;96334.75;;;9.53
24201;BMP280;2801;50.972;7.856;2022-12-29T07:31:59;96355.78;;;9.55
24201;BMP280;2801;50.972;7.856;2022-12-29T07:34:26;96363.94;;;9.58
24201;BMP280;2801;50.972;7.856;2022-12-29T07:36:53;96377.13;;;9.51
24201;BMP280;2801;50.972;7.856;2022-12-29T07:39:20;96376.34;;;9.51
24201;BMP280;2801;50.972;7.856;2022-12-29T07:41:47;96354.59;;;9.52
24201;BMP280;2801;50.972;7.856;2022-12-29T07:44:13;96355.38;;;9.53
24201;BMP280;2801;50.972;7.856;2022-12-29T07:46:42;96363.63;;;9.48
24201;BMP280;2801;50.972;7.856;2022-12-29T07:49:22;96353.31;;;9.46
24201;BMP280;2801;50.972;7.856;2022-12-29T07:51:49;96364.75;;;9.47
24201;BMP280;2801;50.972;7.856;2022-12-29T07:54:16;96381.59;;;9.47
24201;BMP280;2801;50.972;7.856;2022-12-29T07:56:45;96387.28;;;9.46
24201;BMP280;2801;50.972;7.856;2022-12-29T07:59:12;96380.63;;;9.40
24201;BMP280;2801;50.972;7.856;2022-12-29T08:01:39;96391.50;;;9.47
24201;BMP280;2801;50.972;7.856;2022-12-29T08:04:06;96397.19;;;9.45
24201;BMP280;2801;50.972;7.856;2022-12-29T08:06:33;96399.53;;;9.47
24201;BMP280;2801;50.972;7.856;2022-12-29T08:09:00;96399.28;;;9.52
24201;BMP280;2801;50.972;7.856;2022-12-29T08:11:38;96405.88;;;9.54
24201;BMP280;2801;50.972;7.856;2022-12-29T08:14:05;96400.94;;;9.56
24201;BMP280;2801;50.972;7.856;2022-12-29T08:16:32;96400.72;;;9.61
24201;BMP280;2801;50.972;7.856;2022-12-29T08:18:59;96411.84;;;9.63
24201;BMP280;2801;50.972;7.856;2022-12-29T08:21:29;96418.75;;;9.64
24201;BMP280;2801;50.972;7.856;2022-12-29T08:23:56;96427.28;;;9.70
24201;BMP280;2801;50.972;7.856;2022-12-29T08:26:23;96418.94;;;9.71
24201;BMP280;2801;50.972;7.856;2022-12-29T08:28:53;96430.84;;;9.74
24201;BMP280;2801;50.972;7.856;2022-12-29T08:31:21;96416.91;;;9.80
24201;BMP280;2801;50.972;7.856;2022-12-29T08:33:49;96418.53;;;9.85
24201;BMP280;2801;50.972;7.856;2022-12-29T08:36:16;96435.72;;;9.84
24201;BMP280;2801;50.972;7.856;2022-12-29T08:38:43;96430.28;;;9.80
24201;BMP280;2801;50.972;7.856;2022-12-29T08:41:10;96440.06;;;9.88
24201;BMP280;2801;50.972;7.856;2022-12-29T08:43:37;96453.78;;;9.87
24201;BMP280;2801;50.972;7.856;2022-12-29T08:46:03;96449.97;;;9.88
24201;BMP280;2801;50.972;7.856;2022-12-29T08:48:30;96452.97;;;9.86
24201;BMP280;2801;50.972;7.856;2022-12-29T08:50:57;96450.75;;;9.88
24201;BMP280;2801;50.972;7.856;2022-12-29T08:53:24;96453.19;;;9.93
24201;BMP280;2801;50.972;7.856;2022-12-29T08:56:00;96443.59;;;9.92
24201;BMP280;2801;50.972;7.856;2022-12-29T08:58:31;96448.69;;;9.97
24201;BMP280;2801;50.972;7.856;2022-12-29T09:00:59;96448.69;;;9.97
24201;BMP280;2801;50.972;7.856;2022-12-29T09:03:26;96457.84;;;9.96
24201;BMP280;2801;50.972;7.856;2022-12-29T09:06:16;96463.88;;;9.93
24201;BMP280;2801;50.972;7.856;2022-12-29T09:08:44;96455.94;;;9.97
24201;BMP280;2801;50.972;7.856;2022-12-29T09:11:21;96452.56;;;10.00
24201;BMP280;2801;50.972;7.856;2022-12-29T09:13:49;96440.31;;;9.99
24201;BMP280;2801;50.972;7.856;2022-12-29T09:16:17;96450.25;;;9.98
24201;BMP280;2801;50.972;7.856;2022-12-29T09:18:45;96451.44;;;10.01
24201;BMP280;2801;50.972;7.856;2022-12-29T09:21:12;96445.47;;;9.92
24201;BMP280;2801;50.972;7.856;2022-12-29T09:23:40;96446.28;;;9.92
24201;BMP280;2801;50.972;7.856;2022-12-29T09:26:08;96446.81;;;9.98
24201;BMP280;2801;50.972;7.856;2022-12-29T09:28:35;96457.75;;;9.93
24201;BMP280;2801;50.972;7.856;2022-12-29T09:31:02;96463.53;;;9.95
24201;BMP280;2801;50.972;7.856;2022-12-29T09:33:30;96458.00;;;9.88
24201;BMP280;2801;50.972;7.856;2022-12-29T09:35:59;96475.84;;;9.84
24201;BMP280;2801;50.972;7.856;2022-12-29T09:38:27;96479.66;;;9.83
24201;BMP280;2801;50.972;7.856;2022-12-29T09:41:00;96472.41;;;9.83
24201;BMP280;2801;50.972;7.856;2022-12-29T09:46:28;96481.88;;;9.81
24201;BMP280;2801;50.972;7.856;2022-12-29T09:51:59;96489.16;;;9.80
24201;BMP280;2801;50.972;7.856;2022-12-29T09:54:39;96494.41;;;9.77
24201;BMP280;2801;50.972;7.856;2022-12-29T09:57:20;96493.78;;;9.68
24201;BMP280;2801;50.972;7.856;2022-12-29T09:59:54;96489.88;;;9.65
24201;BMP280;2801;50.972;7.856;2022-12-29T10:02:46;96483.06;;;9.68
24201;BMP280;2801;50.972;7.856;2022-12-29T10:05:39;96480.19;;;9.61
24201;BMP280;2801;50.972;7.856;2022-12-29T10:08:26;96489.19;;;9.68
24201;BMP280;2801;50.972;7.856;2022-12-29T10:14:10;96502.25;;;9.58
24201;BMP280;2801;50.972;7.856;2022-12-29T10:25:38;96522.47;;;9.55
24201;BMP280;2801;50.972;7.856;2022-12-29T10:30:50;96515.66;;;9.58
24201;BMP280;2801;50.972;7.856;2022-12-29T10:33:25;96511.41;;;9.57
24201;BMP280;2801;50.972;7.856;2022-12-29T10:35:53;96510.63;;;9.56
24201;BMP280;2801;50.972;7.856;2022-12-29T10:38:38;96519.53;;;9.60
24201;BMP280;2801;50.972;7.856;2022-12-29T10:41:28;96520.00;;;9.62
24201;BMP280;2801;50.972;7.856;2022-12-29T10:44:00;96509.63;;;9.61
24201;BMP280;2801;50.972;7.856;2022-12-29T10:46:38;96516.44;;;9.58
24201;BMP280;2801;50.972;7.856;2022-12-29T10:49:17;96519.19;;;9.62
24201;BMP280;2801;50.972;7.856;2022-12-29T10:51:56;96515.41;;;9.63
24201;BMP280;2801;50.972;7.856;2022-12-29T10:57:43;96497.94;;;9.53
24201;BMP280;2801;50.972;7.856;2022-12-29T11:00:19;96512.34;;;9.49
24201;BMP280;2801;50.972;7.856;2022-12-29T11:08:51;96520.56;;;9.44
24201;BMP280;2801;50.972;7.856;2022-12-29T11:11:32;96520.69;;;9.47
24201;BMP280;2801;50.972;7.856;2022-12-29T11:14:14;96508.44;;;9.46
24201;BMP280;2801;50.972;7.856;2022-12-29T11:16:44;96518.09;;;9.51
24201;BMP280;2801;50.972;7.856;2022-12-29T11:19:28;96511.44;;;9.45
24201;BMP280;2801;50.972;7.856;2022-12-29T11:22:12;96515.22;;;9.44
24201;BMP280;2801;50.972;7.856;2022-12-29T11:24:52;96516.81;;;9.45
24201;BMP280;2801;50.972;7.856;2022-12-29T11:27:25;96513.09;;;9.49
24201;BMP280;2801;50.972;7.856;2022-12-29T11:29:54;96522.34;;;9.52
24201;BMP280;2801;50.972;7.856;2022-12-29T11:32:23;96515.69;;;9.46
24201;BMP280;2801;50.972;7.856;2022-12-29T11:34:56;96513.56;;;9.51
24201;BMP280;2801;50.972;7.856;2022-12-29T11:37:40;96517.44;;;9.54
24201;BMP280;2801;50.972;7.856;2022-12-29T11:40:19;96513.63;;;9.55
24201;BMP280;2801;50.972;7.856;2022-12-29T11:45:25;96515.25;;;9.71
24201;BMP280;2801;50.972;7.856;2022-12-29T11:48:17;96528.66;;;9.71
24201;BMP280;2801;50.972;7.856;2022-12-29T11:50:53;96529.44;;;9.72
24201;BMP280;2801;50.972;7.856;2022-12-29T11:53:37;96525.97;;;9.71
24201;BMP280;2801;50.972;7.856;2022-12-29T11:56:12;96516.81;;;9.72
24201;BMP280;2801;50.972;7.856;2022-12-29T11:58:40;96522.16;;;9.72
24201;BMP280;2801;50.972;7.856;2022-12-29T12:01:11;96520.03;;;9.78
24201;BMP280;2801;50.972;7.856;2022-12-29T12:03:54;96516.16;;;9.75
24201;BMP280;2801;50.972;7.856;2022-12-29T12:06:24;96515.25;;;9.71
24201;BMP280;2801;50.972;7.856;2022-12-29T12:09:25;96526.19;;;9.78
24201;BMP280;2801;50.972;7.856;2022-12-29T12:11:55;96523.59;;;9.82
24201;BMP280;2801;50.972;7.856;2022-12-29T12:14:35;96522.38;;;9.79
24201;BMP280;2801;50.972;7.856;2022-12-29T12:17:13;96524.38;;;9.82
24201;BMP280;2801;50.972;7.856;2022-12-29T12:19:58;96532.75;;;9.81
24201;BMP280;2801;50.972;7.856;2022-12-29T12:22:37;96537.75;;;9.82
24201;BMP280;2801;50.972;7.856;2022-12-29T12:25:28;96529.84;;;9.74
24201;BMP280;2801;50.972;7.856;2022-12-29T12:28:28;96527.63;;;9.76
24201;BMP280;2801;50.972;7.856;2022-12-29T12:31:15;96524.97;;;9.76
24201;BMP280;2801;50.972;7.856;2022-12-29T12:33:47;96524.16;;;9.75
24201;BMP280;2801;50.972;7.856;2022-12-29T12:36:43;96530.66;;;9.74
24201;BMP280;2801;50.972;7.856;2022-12-29T12:45:58;96529.13;;;9.61
24201;BMP280;2801;50.972;7.856;2022-12-29T12:55:06;96544.69;;;9.71
24201;BMP280;2801;50.972;7.856;2022-12-29T12:58:51;96544.63;;;9.68
24201;BMP280;2801;50.972;7.856;2022-12-29T13:01:22;96551.50;;;9.69
24201;BMP280;2801;50.972;7.856;2022-12-29T13:10:49;96550.97;;;9.63
24201;BMP280;2801;50.972;7.856;2022-12-29T13:16:34;96552.09;;;9.62
24201;BMP280;2801;50.972;7.856;2022-12-29T13:19:34;96552.19;;;9.66
24201;BMP280;2801;50.972;7.856;2022-12-29T13:22:24;96565.34;;;9.59
24201;BMP280;2801;50.972;7.856;2022-12-29T13:28:04;96551.25;;;9.46
24201;BMP280;2801;50.972;7.856;2022-12-29T13:33:34;96561.94;;;9.46
24201;BMP280;2801;50.972;7.856;2022-12-29T13:36:44;96558.16;;;9.47
24201;BMP280;2801;50.972;7.856;2022-12-29T13:39:40;96565.25;;;9.55
24201;BMP280;2801;50.972;7.856;2022-12-29T13:42:10;96566.25;;;9.51
24201;BMP280;2801;50.972;7.856;2022-12-29T13:44:46;96550.13;;;9.47
24201;BMP280;2801;50.972;7.856;2022-12-29T13:47:40;96560.47;;;9.49
24201;BMP280;2801;50.972;7.856;2022-12-29T13:50:22;96565.25;;;9.55
24201;BMP280;2801;50.972;7.856;2022-12-29T13:56:08;96569.06;;;9.54
24201;BMP280;2801;50.972;7.856;2022-12-29T13:58:56;96581.31;;;9.55
24201;BMP280;2801;50.972;7.856;2022-12-29T14:01:30;96589.75;;;9.57
24201;BMP280;2801;50.972;7.856;2022-12-29T14:04:11;96580.31;;;9.48
24201;BMP280;2801;50.972;7.856;2022-12-29T14:06:39;96589.34;;;9.55
24201;BMP280;2801;50.972;7.856;2022-12-29T14:12:49;96593.81;;;9.51
24201;BMP280;2801;50.972;7.856;2022-12-29T14:15:23;96587.34;;;9.52
24201;BMP280;2801;50.972;7.856;2022-12-29T14:18:19;96591.34;;;9.58
24201;BMP280;2801;50.972;7.856;2022-12-29T14:20:59;96602.94;;;9.62
24201;BMP280;2801;50.972;7.856;2022-12-29T14:23:41;96601.16;;;9.54
24201;BMP280;2801;50.972;7.856;2022-12-29T14:29:16;96607.72;;;9.57
24201;BMP280;2801;50.972;7.856;2022-12-29T14:31:43;96599.72;;;9.57
24201;BMP280;2801;50.972;7.856;2022-12-29T14:36:39;96614.22;;;9.56
24201;BMP280;2801;50.972;7.856;2022-12-29T14:44:32;96630.94;;;9.53
24201;BMP280;2801;50.972;7.856;2022-12-29T14:47:05;96635.50;;;9.52
24201;BMP280;2801;50.972;7.856;2022-12-29T14:49:44;96631.59;;;9.50
24201;BMP280;2801;50.972;7.856;2022-12-29T14:52:28;96624.00;;;9.52
24201;BMP280;2801;50.972;7.856;2022-12-29T14:57:49;96642.28;;;9.50
24201;BMP280;2801;50.972;7.856;2022-12-29T15:00:27;96639.72;;;9.41
24201;BMP280;2801;50.972;7.856;2022-12-29T15:03:40;96623.00;;;9.44
24201;BMP280;2801;50.972;7.856;2022-12-29T15:06:13;96616.88;;;9.44
24201;BMP280;2801;50.972;7.856;2022-12-29T15:09:12;96629.47;;;9.43
24201;BMP280;2801;50.972;7.856;2022-12-29T15:11:51;96629.47;;;9.43
24201;BMP280;2801;50.972;7.856;2022-12-29T15:14:39;96636.28;;;9.41
24201;BMP280;2801;50.972;7.856;2022-12-29T15:17:32;96631.94;;;9.36
24201;BMP280;2801;50.972;7.856;2022-12-29T15:20:16;96639.28;;;9.39
24201;BMP280;2801;50.972;7.856;2022-12-29T15:25:24;96643.63;;;9.32
24201;BMP280;2801;50.972;7.856;2022-12-29T15:27:59;96667.91;;;9.27
24201;BMP280;2801;50.972;7.856;2022-12-29T15:30:26;96665.91;;;9.24
24201;BMP280;2801;50.972;7.856;2022-12-29T15:32:53;96658.53;;;9.21
24201;BMP280;2801;50.972;7.856;2022-12-29T15:35:36;96675.25;;;9.18
24201;BMP280;2801;50.972;7.856;2022-12-29T15:38:19;96674.81;;;9.16
24201;BMP280;2801;50.972;7.856;2022-12-29T15:41:05;96682.50;;;9.05
24201;BMP280;2801;50.972;7.856;2022-12-29T15:46:23;96680.63;;;8.85
24201;BMP280;2801;50.972;7.856;2022-12-29T15:48:50;96674.28;;;8.78
24201;BMP280;2801;50.972;7.856;2022-12-29T15:51:28;96687.97;;;8.76
24201;BMP280;2801;50.972;7.856;2022-12-29T15:53:56;96682.38;;;8.69
24201;BMP280;2801;50.972;7.856;2022-12-29T15:56:24;96678.59;;;8.70
24201;BMP280;2801;50.972;7.856;2022-12-29T15:58:54;96687.84;;;8.73
24201;BMP280;2801;50.972;7.856;2022-12-29T16:01:33;96700.75;;;8.71
24201;BMP280;2801;50.972;7.856;2022-12-29T16:04:06;96698.41;;;8.69
24201;BMP280;2801;50.972;7.856;2022-12-29T16:06:44;96699.06;;;8.66
24201;BMP280;2801;50.972;7.856;2022-12-29T16:09:41;96693.47;;;8.59
24201;BMP280;2801;50.972;7.856;2022-12-29T16:12:20;96692.31;;;8.48
24201;BMP280;2801;50.972;7.856;2022-12-29T16:14:56;96704.38;;;8.54
24201;BMP280;2801;50.972;7.856;2022-12-29T16:17:29;96697.31;;;8.50
24201;BMP280;2801;50.972;7.856;2022-12-29T16:20:06;96702.56;;;8.46
24201;BMP280;2801;50.972;7.856;2022-12-29T16:22:47;96710.88;;;8.45
24201;BMP280;2801;50.972;7.856;2022-12-29T16:25:28;96706.34;;;8.45
24201;BMP280;2801;50.972;7.856;2022-12-29T16:27:55;96699.75;;;8.43
24201;BMP280;2801;50.972;7.856;2022-12-29T16:30:32;96704.06;;;8.35
24201;BMP280;2801;50.972;7.856;2022-12-29T16:33:05;96698.19;;;8.21
24201;BMP280;2801;50.972;7.856;2022-12-29T16:35:46;96702.72;;;8.21
24201;BMP280;2801;50.972;7.856;2022-12-29T16:40:55;96713.72;;;7.99
24201;BMP280;2801;50.972;7.856;2022-12-29T16:43:36;96709.34;;;7.94
24201;BMP280;2801;50.972;7.856;2022-12-29T16:46:29;96699.31;;;7.91
24201;BMP280;2801;50.972;7.856;2022-12-29T16:48:57;96701.84;;;7.88
24201;BMP280;2801;50.972;7.856;2022-12-29T16:51:35;96711.88;;;7.91
24201;BMP280;2801;50.972;7.856;2022-12-29T16:54:03;96715.63;;;7.90
24201;BMP280;2801;50.972;7.856;2022-12-29T16:56:35;96723.00;;;7.93
24201;BMP280;2801;50.972;7.856;2022-12-29T16:59:38;96731.94;;;7.97
24201;BMP280;2801;50.972;7.856;2022-12-29T17:02:14;96728.16;;;7.98
24201;BMP280;2801;50.972;7.856;2022-12-29T17:04:42;96721.56;;;7.95
24201;BMP280;2801;50.972;7.856;2022-12-29T17:07:22;96732.59;;;7.94